createdAt,value
2018-05-23T00:00:08.536Z,53.13
2018-05-23T00:02:36.776Z,48.80
2018-05-23T00:05:04.276Z,49.33
2018-05-23T00:07:33.260Z,49.97
2018-05-23T00:10:00.743Z,51.67
2018-05-23T00:12:28.991Z,52.83
2018-05-23T00:14:56.481Z,49.57
2018-05-23T00:17:24.716Z,52.20
2018-05-23T00:19:52.208Z,51.33
2018-05-23T00:22:20.449Z,54.33
2018-05-23T00:24:47.935Z,48.10
2018-05-23T00:27:15.419Z,52.63
2018-05-23T00:29:42.913Z,53.03
2018-05-23T00:32:10.383Z,52.63
2018-05-23T00:34:37.903Z,56.20
2018-05-23T00:37:05.373Z,50.00
2018-05-23T00:39:32.847Z,48.80
2018-05-23T00:42:00.327Z,47.93
2018-05-23T00:44:27.799Z,48.63
2018-05-23T00:46:55.289Z,52.03
2018-05-23T00:49:22.757Z,50.53
2018-05-23T00:51:50.240Z,54.40
2018-05-23T00:54:17.715Z,52.60
2018-05-23T00:56:45.214Z,55.20
2018-05-23T00:59:13.476Z,60.50
2018-05-23T01:01:41.773Z,56.83
2018-05-23T01:04:10.008Z,55.00
2018-05-23T01:06:37.495Z,53.57
2018-05-23T01:09:05.794Z,59.47
2018-05-23T01:11:33.244Z,60.60
2018-05-23T01:14:00.727Z,60.33
2018-05-23T01:16:28.187Z,60.40
2018-05-23T01:18:55.709Z,57.47
2018-05-23T01:21:23.952Z,61.07
2018-05-23T01:23:51.444Z,59.13
2018-05-23T01:26:19.725Z,58.47
2018-05-23T01:28:47.984Z,63.00
2018-05-23T01:31:16.227Z,64.37
2018-05-23T01:33:43.731Z,61.53
2018-05-23T01:36:11.980Z,63.77
2018-05-23T01:38:39.468Z,61.70
2018-05-23T01:41:07.708Z,65.30
2018-05-23T01:43:35.200Z,61.43
2018-05-23T01:46:02.700Z,62.60
2018-05-23T01:48:42.112Z,64.10
2018-05-23T01:51:09.584Z,60.40
2018-05-23T01:53:37.115Z,57.63
2018-05-23T01:56:05.360Z,61.13
2018-05-23T01:58:32.837Z,62.13
2018-05-23T02:01:00.321Z,63.47
2018-05-23T02:03:27.794Z,61.50
2018-05-23T02:05:55.285Z,64.57
2018-05-23T02:08:22.752Z,62.73
2018-05-23T02:10:50.239Z,62.20
2018-05-23T02:13:18.492Z,62.10
2018-05-23T02:15:45.980Z,62.80
2018-05-23T02:18:14.218Z,61.40
2018-05-23T02:20:41.700Z,62.13
2018-05-23T02:23:09.949Z,68.13
2018-05-23T02:25:37.440Z,67.70
2018-05-23T02:28:05.691Z,59.60
2018-05-23T02:30:33.175Z,53.30
2018-05-23T02:33:01.407Z,61.30
2018-05-23T02:35:28.904Z,60.23
2018-05-23T02:37:57.146Z,49.57
2018-05-23T02:40:24.632Z,54.47
2018-05-23T02:42:52.116Z,54.00
2018-05-23T02:45:19.582Z,59.60
2018-05-23T02:47:47.073Z,57.10
2018-05-23T02:50:14.556Z,67.87
2018-05-23T02:52:42.045Z,70.30
2018-05-23T02:55:10.287Z,67.40
2018-05-23T02:57:37.781Z,66.40
2018-05-23T03:00:06.024Z,72.17
2018-05-23T03:02:33.517Z,64.90
2018-05-23T03:05:01.008Z,69.47
2018-05-23T03:07:28.491Z,69.40
2018-05-23T03:09:55.968Z,74.17
2018-05-23T03:12:24.298Z,72.60
2018-05-23T03:14:52.480Z,72.73
2018-05-23T03:17:20.026Z,75.87
2018-05-23T03:19:47.507Z,78.07
2018-05-23T03:22:14.990Z,79.13
2018-05-23T03:24:44.000Z,77.30
2018-05-23T03:27:12.240Z,85.63
2018-05-23T03:29:39.728Z,72.83
2018-05-23T03:32:07.197Z,76.77
2018-05-23T03:34:35.456Z,71.80
2018-05-23T03:37:02.929Z,77.40
2018-05-23T03:39:31.179Z,77.10
2018-05-23T03:41:58.648Z,73.33
2018-05-23T03:44:26.135Z,81.33
2018-05-23T03:46:53.620Z,80.17
2018-05-23T03:49:21.112Z,82.47
2018-05-23T03:51:48.592Z,78.23
2018-05-23T03:54:16.844Z,77.40
2018-05-23T03:56:44.315Z,77.90
2018-05-23T03:59:13.316Z,79.87
2018-05-23T04:01:52.565Z,77.90
2018-05-23T04:04:32.188Z,77.80
2018-05-23T04:09:59.575Z,80.80
2018-05-23T04:12:27.815Z,81.00
2018-05-23T04:14:55.302Z,76.37
2018-05-23T04:17:22.793Z,78.17
2018-05-23T04:19:50.287Z,75.67
2018-05-23T04:22:17.776Z,78.23
2018-05-23T04:24:45.238Z,78.90
2018-05-23T04:27:13.497Z,77.93
2018-05-23T04:29:40.968Z,79.20
2018-05-23T04:32:08.452Z,76.20
2018-05-23T04:34:36.688Z,83.20
2018-05-23T04:37:04.174Z,77.47
2018-05-23T04:39:32.412Z,75.77
2018-05-23T04:41:59.899Z,73.30
2018-05-23T04:44:27.372Z,77.67
2018-05-23T04:46:55.635Z,71.93
2018-05-23T04:49:23.111Z,76.70
2018-05-23T04:51:52.083Z,73.70
2018-05-23T04:54:19.627Z,76.07
2018-05-23T04:56:47.056Z,79.60
2018-05-23T04:59:14.537Z,79.50
2018-05-23T05:01:42.014Z,76.17
2018-05-23T05:04:09.524Z,80.40
2018-05-23T05:06:37.004Z,84.30
2018-05-23T05:09:07.240Z,74.37
2018-05-23T05:11:35.480Z,80.00
2018-05-23T05:14:02.969Z,82.23
2018-05-23T05:16:30.439Z,84.50
2018-05-23T05:18:57.928Z,79.50
2018-05-23T05:21:25.408Z,92.27
2018-05-23T05:23:52.907Z,79.83
2018-05-23T05:26:20.381Z,81.93
2018-05-23T05:28:48.644Z,78.83
2018-05-23T05:31:16.122Z,89.33
2018-05-23T05:33:44.404Z,86.03
2018-05-23T05:36:12.655Z,86.53
2018-05-23T05:38:40.133Z,86.93
2018-05-23T05:41:08.393Z,88.13
2018-05-23T05:43:35.866Z,82.70
2018-05-23T05:46:03.351Z,87.47
2018-05-23T05:48:30.849Z,90.23
2018-05-23T05:50:58.353Z,89.93
2018-05-23T05:53:26.584Z,89.23
2018-05-23T05:55:54.074Z,86.37
2018-05-23T05:58:21.547Z,89.20
2018-05-23T06:00:49.796Z,94.53
2018-05-23T06:03:17.280Z,87.60
2018-05-23T06:05:45.532Z,90.07
2018-05-23T06:08:14.516Z,89.13
2018-05-23T06:10:42.015Z,89.97
2018-05-23T06:13:10.251Z,85.53
2018-05-23T06:15:37.728Z,93.50
2018-05-23T06:18:05.987Z,84.40
2018-05-23T06:20:33.463Z,87.20
2018-05-23T06:23:00.964Z,87.30
2018-05-23T06:25:28.445Z,84.93
2018-05-23T06:27:55.940Z,83.80
2018-05-23T06:30:23.431Z,84.90
2018-05-23T06:32:50.924Z,90.80
2018-05-23T06:35:18.399Z,83.77
2018-05-23T06:37:45.937Z,84.33
2018-05-23T06:40:13.379Z,78.40
2018-05-23T06:42:40.867Z,82.30
2018-05-23T06:45:08.332Z,84.60
2018-05-23T06:47:35.822Z,84.10
2018-05-23T06:50:04.083Z,80.17
2018-05-23T06:52:33.075Z,87.37
2018-05-23T06:55:00.555Z,82.20
2018-05-23T06:57:28.812Z,82.27
2018-05-23T06:59:56.307Z,78.27
2018-05-23T07:02:23.787Z,79.73
2018-05-23T07:04:51.273Z,81.30
2018-05-23T07:07:20.296Z,87.23
2018-05-23T07:09:48.559Z,82.67
2018-05-23T07:12:16.037Z,74.33
2018-05-23T07:14:44.289Z,74.20
2018-05-23T07:17:11.781Z,77.20
2018-05-23T07:19:39.279Z,75.90
2018-05-23T07:22:06.769Z,77.40
2018-05-23T07:24:34.252Z,73.53
2018-05-23T07:27:02.492Z,68.03
2018-05-23T07:29:29.997Z,60.30
2018-05-23T07:31:57.467Z,64.93
2018-05-23T07:34:24.951Z,58.77
2018-05-23T07:36:52.434Z,64.43
2018-05-23T07:39:19.905Z,60.13
2018-05-23T07:41:48.158Z,68.60
2018-05-23T07:44:15.631Z,63.13
2018-05-23T07:46:43.881Z,66.07
2018-05-23T07:49:11.353Z,61.53
2018-05-23T07:51:38.843Z,63.10
2018-05-23T07:54:07.089Z,62.10
2018-05-23T07:56:34.667Z,59.47
2018-05-23T07:59:02.068Z,65.80
2018-05-23T08:01:29.569Z,60.60
2018-05-23T08:03:57.055Z,56.80
2018-05-23T08:06:24.551Z,60.17
2018-05-23T08:08:52.051Z,55.97
2018-05-23T08:11:19.548Z,47.27
2018-05-23T08:13:47.032Z,46.30
2018-05-23T08:16:14.560Z,40.80
2018-05-23T08:18:42.053Z,40.97
2018-05-23T08:21:09.560Z,42.80
2018-05-23T08:23:37.805Z,40.10
2018-05-23T08:26:05.280Z,35.87
2018-05-23T08:28:32.785Z,30.57
2018-05-23T08:31:00.261Z,25.23
2018-05-23T08:33:27.753Z,42.87
2018-05-23T08:35:55.999Z,26.60
2018-05-23T08:38:23.484Z,23.40
2018-05-23T08:40:50.961Z,23.93
2018-05-23T08:43:19.216Z,19.20
2018-05-23T08:45:46.683Z,19.73
2018-05-23T08:48:14.952Z,17.60
2018-05-23T08:50:42.453Z,18.53
2018-05-23T08:53:09.939Z,21.77
2018-05-23T08:55:37.436Z,17.07
2018-05-23T08:58:05.696Z,14.30
2018-05-23T09:00:33.167Z,13.17
2018-05-23T09:03:00.652Z,12.70
2018-05-23T09:05:28.150Z,12.23
2018-05-23T09:07:56.390Z,11.20
2018-05-23T09:10:23.883Z,13.10
2018-05-23T09:12:51.371Z,14.43
2018-05-23T09:15:18.870Z,14.37
2018-05-23T09:17:46.352Z,22.57
2018-05-23T09:20:13.858Z,21.07
2018-05-23T09:22:42.275Z,16.57
2018-05-23T09:25:09.763Z,19.90
2018-05-23T09:27:37.261Z,12.10
2018-05-23T09:30:05.531Z,19.30
2018-05-23T09:32:33.770Z,25.33
2018-05-23T09:35:01.268Z,12.60
2018-05-23T09:37:29.509Z,13.10
2018-05-23T09:39:57.015Z,9.20
2018-05-23T09:42:24.492Z,12.40
2018-05-23T09:44:51.978Z,7.90
2018-05-23T09:47:19.470Z,7.80
2018-05-23T09:49:47.122Z,18.40
2018-05-23T09:52:14.607Z,24.07
2018-05-23T09:54:42.903Z,7.57
2018-05-23T09:57:10.454Z,6.77
2018-05-23T09:59:37.956Z,12.10
2018-05-23T10:02:05.431Z,8.43
2018-05-23T10:04:32.920Z,12.80
2018-05-23T10:07:01.176Z,23.30
2018-05-23T10:09:28.648Z,7.33
2018-05-23T10:11:56.896Z,7.60
2018-05-23T10:14:24.366Z,7.90
2018-05-23T10:16:52.692Z,13.93
2018-05-23T10:19:20.161Z,14.80
2018-05-23T10:21:47.660Z,28.93
2018-05-23T10:24:15.128Z,10.53
2018-05-23T10:26:43.395Z,6.60
2018-05-23T10:29:10.888Z,8.10
2018-05-23T10:31:38.377Z,5.47
2018-05-23T10:34:05.852Z,8.00
2018-05-23T10:36:33.316Z,7.40
2018-05-23T10:39:00.830Z,4.80
2018-05-23T10:41:29.043Z,5.60
2018-05-23T10:43:56.539Z,5.60
2018-05-23T10:46:24.796Z,9.20
2018-05-23T10:48:52.279Z,5.43
2018-05-23T10:51:20.513Z,5.80
2018-05-23T10:53:48.008Z,5.43
2018-05-23T10:56:16.236Z,8.40
2018-05-23T10:58:43.727Z,5.50
2018-05-23T11:01:11.226Z,5.87
2018-05-23T11:03:38.760Z,5.20
2018-05-23T11:06:06.996Z,6.10
2018-05-23T11:08:34.495Z,5.53
2018-05-23T11:11:02.804Z,4.87
2018-05-23T11:13:30.272Z,5.30
2018-05-23T11:15:57.752Z,5.13
2018-05-23T11:18:25.296Z,4.73
2018-05-23T11:20:52.955Z,7.50
2018-05-23T11:23:20.424Z,10.77
2018-05-23T11:25:47.920Z,6.13
2018-05-23T11:28:16.167Z,5.40
2018-05-23T11:30:43.652Z,6.07
2018-05-23T11:33:11.186Z,5.33
2018-05-23T11:35:38.758Z,5.47
2018-05-23T11:38:07.732Z,7.60
2018-05-23T11:40:35.220Z,7.10
2018-05-23T11:43:02.696Z,5.97
2018-05-23T11:45:30.955Z,6.80
2018-05-23T11:47:58.423Z,5.63
2018-05-23T11:50:26.671Z,6.30
2018-05-23T11:52:54.144Z,5.30
2018-05-23T11:55:21.604Z,4.73
2018-05-23T11:57:49.129Z,5.83
2018-05-23T12:00:16.593Z,5.47
2018-05-23T12:02:44.076Z,5.60
2018-05-23T12:05:11.539Z,8.23
2018-05-23T12:07:39.019Z,5.60
2018-05-23T12:10:07.317Z,6.47
2018-05-23T12:12:34.809Z,12.10
2018-05-23T12:15:02.295Z,5.40
2018-05-23T12:17:31.607Z,8.23
2018-05-23T12:19:59.836Z,6.20
2018-05-23T12:22:27.352Z,6.50
2018-05-23T12:24:54.859Z,14.57
2018-05-23T12:27:22.343Z,9.00
2018-05-23T12:29:49.805Z,7.97
2018-05-23T12:32:17.301Z,19.90
2018-05-23T12:34:44.780Z,7.53
2018-05-23T12:37:12.288Z,7.50
2018-05-23T12:39:40.540Z,6.80
2018-05-23T12:42:08.047Z,7.00
2018-05-23T12:44:35.543Z,7.50
2018-05-23T12:47:03.024Z,7.77
2018-05-23T12:49:30.500Z,9.60
2018-05-23T12:51:57.987Z,6.40
2018-05-23T12:54:25.510Z,7.40
2018-05-23T12:56:53.077Z,11.10
2018-05-23T12:59:21.340Z,7.57
2018-05-23T13:01:48.855Z,31.43
2018-05-23T13:04:16.354Z,6.00
2018-05-23T13:06:43.853Z,6.93
2018-05-23T13:09:12.083Z,7.87
2018-05-23T13:11:39.559Z,7.33
2018-05-23T13:14:07.854Z,8.47
2018-05-23T13:16:36.108Z,24.37
2018-05-23T13:19:03.574Z,11.80
2018-05-23T13:21:31.859Z,7.30
2018-05-23T13:24:00.089Z,6.17
2018-05-23T13:26:27.604Z,5.80
2018-05-23T13:28:55.075Z,6.40
2018-05-23T13:31:23.352Z,7.43
2018-05-23T13:33:50.842Z,14.37
2018-05-23T13:36:18.324Z,22.90
2018-05-23T13:38:45.787Z,6.70
2018-05-23T13:41:13.272Z,10.07
2018-05-23T13:43:40.764Z,6.00
2018-05-23T13:46:08.290Z,6.13
2018-05-23T13:48:35.810Z,6.57
2018-05-23T13:51:03.300Z,5.57
2018-05-23T13:53:31.540Z,5.40
2018-05-23T13:55:59.036Z,6.67
2018-05-23T13:58:26.532Z,6.97
2018-05-23T14:00:54.098Z,4.97
2018-05-23T14:03:21.640Z,24.90
2018-05-23T14:05:49.108Z,10.30
2018-05-23T14:08:16.592Z,6.63
2018-05-23T14:10:44.068Z,7.03
2018-05-23T14:13:11.628Z,5.63
2018-05-23T14:15:39.176Z,5.10
2018-05-23T14:18:06.668Z,5.90
2018-05-23T14:20:34.926Z,5.90
2018-05-23T14:23:03.176Z,5.77
2018-05-23T14:25:30.668Z,18.77
2018-05-23T14:27:58.929Z,6.67
2018-05-23T14:30:26.413Z,6.33
2018-05-23T14:32:54.697Z,7.07
2018-05-23T14:35:22.215Z,8.30
2018-05-23T14:37:49.679Z,7.80
2018-05-23T14:40:17.169Z,14.23
2018-05-23T14:42:45.408Z,12.97
2018-05-23T14:45:12.948Z,9.47
2018-05-23T14:47:40.423Z,7.23
2018-05-23T14:50:07.977Z,6.90
2018-05-23T14:52:35.405Z,9.17
2018-05-23T14:55:02.880Z,7.37
2018-05-23T14:57:30.352Z,7.27
2018-05-23T14:59:57.851Z,7.20
2018-05-23T15:02:25.328Z,8.53
2018-05-23T15:04:52.835Z,10.83
2018-05-23T15:07:20.304Z,7.20
2018-05-23T15:09:48.591Z,9.13
2018-05-23T15:12:16.835Z,18.27
2018-05-23T15:14:44.337Z,17.20
2018-05-23T15:17:12.584Z,7.53
2018-05-23T15:19:41.606Z,10.00
2018-05-23T15:22:09.045Z,11.13
2018-05-23T15:24:36.515Z,9.20
2018-05-23T15:27:04.846Z,9.73
2018-05-23T15:29:33.046Z,8.43
2018-05-23T15:32:00.530Z,8.73
2018-05-23T15:34:28.765Z,9.17
2018-05-23T15:36:56.263Z,9.00
2018-05-23T15:39:24.531Z,13.37
2018-05-23T15:41:52.784Z,7.57
2018-05-23T15:44:20.252Z,7.27
2018-05-23T15:46:47.760Z,11.93
2018-05-23T15:49:15.259Z,12.47
2018-05-23T15:51:42.732Z,7.50
2018-05-23T15:54:10.222Z,7.60
2018-05-23T15:56:37.704Z,7.33
2018-05-23T15:59:05.196Z,10.53
2018-05-23T16:01:32.730Z,9.50
2018-05-23T16:04:00.268Z,7.23
2018-05-23T16:06:27.789Z,7.10
2018-05-23T16:08:56.074Z,7.67
2018-05-23T16:11:24.336Z,6.73
2018-05-23T16:13:51.866Z,10.13
2018-05-23T16:16:19.377Z,6.80
2018-05-23T16:18:46.910Z,7.20
2018-05-23T16:21:14.396Z,10.37
2018-05-23T16:23:42.811Z,6.63
2018-05-23T16:26:10.370Z,6.33
2018-05-23T16:28:37.878Z,9.10
2018-05-23T16:31:05.641Z,7.13
2018-05-23T16:33:33.123Z,7.77
2018-05-23T16:36:01.369Z,9.47
2018-05-23T16:38:29.090Z,7.30
2018-05-23T16:40:56.598Z,7.47
2018-05-23T16:43:24.863Z,7.77
2018-05-23T16:45:52.505Z,13.53
2018-05-23T16:48:20.003Z,13.40
2018-05-23T16:50:48.296Z,10.07
2018-05-23T16:53:15.798Z,9.20
2018-05-23T16:55:43.284Z,11.27
2018-05-23T16:58:10.897Z,7.10
2018-05-23T17:00:38.400Z,11.13
2018-05-23T17:03:06.037Z,7.47
2018-05-23T17:05:33.604Z,6.20
2018-05-23T17:08:01.078Z,8.40
2018-05-23T17:10:28.555Z,9.63
2018-05-23T17:12:56.808Z,11.07
2018-05-23T17:15:24.288Z,7.27
2018-05-23T17:17:52.574Z,15.93
2018-05-23T17:20:20.847Z,16.63
2018-05-23T17:22:49.093Z,10.50
2018-05-23T17:25:16.559Z,9.53
2018-05-23T17:27:44.055Z,14.10
2018-05-23T17:30:11.536Z,7.47
2018-05-23T17:32:39.033Z,12.57
2018-05-23T17:35:06.496Z,7.33
2018-05-23T17:37:34.795Z,10.00
2018-05-23T17:40:03.037Z,11.97
2018-05-23T17:42:30.532Z,17.63
2018-05-23T17:44:58.773Z,12.47
2018-05-23T17:47:26.256Z,28.70
2018-05-23T17:49:53.724Z,8.30
2018-05-23T17:52:21.990Z,11.10
2018-05-23T17:54:49.459Z,6.47
